Time;durP1;ratioP1;P1;durP2;ratioP2;P2;SDS_P1;SDS_P2;PMS_P1;PMS_P2;Temp;Humidity;BMP_temperature;BMP_pressure;BME280_temperature;BME280_humidity;BME280_pressure;Samples;Min_cycle;Max_cycle;Signal;HPM_P1;HPM_P2
2021/08/10 00:01:04;;;;;;;3.42;1.70;;;;;;;;;;5093570;28;20524;-75
2021/08/10 00:03:30;;;;;;;2.15;1.65;;;;;;;;;;5094768;28;20062;-75
2021/08/10 00:05:56;;;;;;;9.95;1.73;;;;;;;;;;5093516;28;20374;-75
2021/08/10 00:08:22;;;;;;;3.33;1.60;;;;;;;;;;5094351;28;20028;-75
2021/08/10 00:10:50;;;;;;;13.00;2.15;;;;;;;;;;5077226;28;20028;-75
2021/08/10 00:13:18;;;;;;;4.25;1.45;;;;;;;;;;5076324;28;20097;-75
2021/08/10 00:15:44;;;;;;;2.80;1.70;;;;;;;;;;5092502;28;20718;-75
2021/08/10 00:18:10;;;;;;;3.70;1.70;;;;;;;;;;5094898;28;20036;-75
2021/08/10 00:20:36;;;;;;;3.30;1.42;;;;;;;;;;5094290;28;20047;-75
2021/08/10 00:23:03;;;;;;;3.45;1.55;;;;;;;;;;5094898;28;20229;-75
2021/08/10 00:25:29;;;;;;;5.88;1.25;;;;;;;;;;5092796;28;20465;-75
2021/08/10 00:27:55;;;;;;;1.70;1.30;;;;;;;;;;5095711;28;20034;-75
2021/08/10 00:30:23;;;;;;;8.60;1.90;;;;;;;;;;5093492;28;20115;-75
2021/08/10 00:32:49;;;;;;;3.40;1.67;;;;;;;;;;5077130;28;20123;-75
2021/08/10 00:35:15;;;;;;;2.30;1.38;;;;;;;;;;5075330;28;20032;-75
2021/08/10 00:37:41;;;;;;;4.85;1.63;;;;;;;;;;5093181;28;20053;-75
2021/08/10 00:40:07;;;;;;;4.78;1.65;;;;;;;;;;5094038;28;20086;-75
2021/08/10 00:42:33;;;;;;;5.43;1.60;;;;;;;;;;5091277;28;20024;-75
2021/08/10 00:44:59;;;;;;;2.20;1.30;;;;;;;;;;5077059;28;20512;-75
2021/08/10 00:47:27;;;;;;;2.88;1.60;;;;;;;;;;5077664;28;20043;-76
2021/08/10 00:49:53;;;;;;;3.40;1.52;;;;;;;;;;5092267;28;20036;-75
2021/08/10 00:52:18;;;;;;;4.80;2.03;;;;;;;;;;5092787;28;20040;-75
2021/08/10 00:54:44;;;;;;;2.28;1.20;;;;;;;;;;5094418;28;20035;-76
2021/08/10 00:57:12;;;;;;;5.05;1.60;;;;;;;;;;5089883;28;20477;-76
2021/08/10 00:59:40;;;;;;;6.57;1.63;;;;;;;;;;5075298;28;20043;-76
2021/08/10 01:02:08;;;;;;;5.70;1.58;;;;;;;;;;5093477;28;20516;-76
2021/08/10 01:04:35;;;;;;;4.03;1.90;;;;;;;;;;5091038;28;20093;-75
2021/08/10 01:07:09;;;;;;;3.05;1.45;;;;;;;;;;5093517;28;20028;-75
2021/08/10 01:10:02;;;;;;;1.85;1.40;;;;;;;;;;5094231;28;20032;-75
2021/08/10 01:12:54;;;;;;;2.65;1.40;;;;;;;;;;5091354;28;20032;-75
2021/08/10 01:15:25;;;;;;;4.72;1.65;;;;;;;;;;5091791;28;20433;-75
2021/08/10 01:18:13;;;;;;;4.80;1.60;;;;;;;;;;5074257;28;20043;-75
2021/08/10 01:20:56;;;;;;;3.47;2.00;;;;;;;;;;5072993;28;20040;-75
2021/08/10 01:23:25;;;;;;;9.23;2.85;;;;;;;;;;5072937;28;20390;-75
2021/08/10 01:26:07;;;;;;;6.03;1.67;;;;;;;;;;5090617;28;20433;-75
2021/08/10 01:28:50;;;;;;;5.72;1.67;;;;;;;;;;5093061;28;20041;-75
2021/08/10 01:31:23;;;;;;;5.50;1.50;;;;;;;;;;5092480;28;20040;-75
2021/08/10 01:33:56;;;;;;;5.82;1.77;;;;;;;;;;5091726;28;20044;-75
2021/08/10 01:36:23;;;;;;;4.75;1.80;;;;;;;;;;5091563;28;20042;-75
2021/08/10 01:38:56;;;;;;;5.85;1.92;;;;;;;;;;5091478;28;20052;-75
2021/08/10 01:41:23;;;;;;;5.53;2.25;;;;;;;;;;5091873;28;20408;-75
2021/08/10 01:43:52;;;;;;;5.63;1.90;;;;;;;;;;5076202;28;20057;-75
2021/08/10 01:46:25;;;;;;;3.90;1.85;;;;;;;;;;5074605;28;20028;-75
2021/08/10 01:48:54;;;;;;;2.92;1.80;;;;;;;;;;5092056;28;20065;-75
2021/08/10 01:51:26;;;;;;;2.40;1.55;;;;;;;;;;5076042;28;20060;-75
2021/08/10 01:53:57;;;;;;;5.80;1.77;;;;;;;;;;5073814;28;20517;-75
2021/08/10 01:56:23;;;;;;;4.35;1.50;;;;;;;;;;5081586;28;20079;-75
2021/08/10 01:58:51;;;;;;;5.60;1.73;;;;;;;;;;5072399;28;20111;-75
2021/08/10 02:01:17;;;;;;;4.65;2.00;;;;;;;;;;5055223;28;20029;-75
2021/08/10 02:03:44;;;;;;;3.10;1.90;;;;;;;;;;5075757;28;20458;-75
2021/08/10 02:06:14;;;;;;;8.82;2.53;;;;;;;;;;5075928;28;20477;-75
2021/08/10 02:08:42;;;;;;;3.95;1.60;;;;;;;;;;5090080;28;20032;-75
2021/08/10 02:11:10;;;;;;;3.55;1.42;;;;;;;;;;5090720;28;20378;-75
2021/08/10 02:13:37;;;;;;;2.75;1.63;;;;;;;;;;5074575;28;20036;-75
2021/08/10 02:16:08;;;;;;;7.25;1.67;;;;;;;;;;5073799;28;20024;-75
2021/08/10 02:18:35;;;;;;;2.90;1.50;;;;;;;;;;5092539;28;20366;-75
2021/08/10 02:21:15;;;;;;;3.10;1.52;;;;;;;;;;5091682;28;20028;-75
2021/08/10 02:23:45;;;;;;;1.73;1.48;;;;;;;;;;5090764;28;20086;-75
2021/08/10 02:26:10;;;;;;;4.80;2.00;;;;;;;;;;5091187;28;20032;-75
2021/08/10 02:28:40;;;;;;;4.00;1.83;;;;;;;;;;5074209;28;20419;-74
2021/08/10 02:31:08;;;;;;;2.72;1.80;;;;;;;;;;5090841;28;20147;-75
2021/08/10 02:33:38;;;;;;;2.83;1.58;;;;;;;;;;5075247;28;20067;-75
2021/08/10 02:36:05;;;;;;;6.88;1.63;;;;;;;;;;5090473;28;20119;-75
2021/08/10 02:38:36;;;;;;;4.60;2.00;;;;;;;;;;5074360;28;20035;-74
2021/08/10 02:41:02;;;;;;;4.13;1.80;;;;;;;;;;5091557;28;20404;-75
2021/08/10 02:43:32;;;;;;;2.28;1.80;;;;;;;;;;5090480;28;20607;-75
2021/08/10 02:46:00;;;;;;;3.58;1.92;;;;;;;;;;5091049;28;20473;-75
2021/08/10 02:48:31;;;;;;;3.63;2.00;;;;;;;;;;5098640;28;20038;-75
2021/08/10 02:50:57;;;;;;;5.97;1.75;;;;;;;;;;5096470;28;20032;-75
2021/08/10 02:53:24;;;;;;;4.82;1.90;;;;;;;;;;5098227;28;20032;-75
2021/08/10 02:56:15;;;;;;;4.75;1.55;;;;;;;;;;5097345;28;20061;-75
2021/08/10 02:58:56;;;;;;;3.88;1.88;;;;;;;;;;5095977;28;20114;-75
2021/08/10 03:01:30;;;;;;;7.82;1.92;;;;;;;;;;5098002;28;20032;-75
2021/08/10 03:04:00;;;;;;;4.93;2.22;;;;;;;;;;5080949;28;20498;-75
2021/08/10 03:06:26;;;;;;;5.85;2.00;;;;;;;;;;5096707;28;20031;-75
2021/08/10 03:08:58;;;;;;;4.97;1.85;;;;;;;;;;5098146;28;20067;-75
2021/08/10 03:11:26;;;;;;;5.07;1.70;;;;;;;;;;5097166;28;20032;-75
2021/08/10 03:13:53;;;;;;;7.70;2.25;;;;;;;;;;5076601;28;20543;-75
2021/08/10 03:16:19;;;;;;;9.48;2.00;;;;;;;;;;5077540;28;20062;-74
2021/08/10 03:18:49;;;;;;;5.15;1.83;;;;;;;;;;5077159;28;20055;-75
2021/08/10 03:21:16;;;;;;;6.55;2.00;;;;;;;;;;5090978;28;20028;-75
2021/08/10 03:23:42;;;;;;;3.85;2.22;;;;;;;;;;5096535;28;20031;-75
2021/08/10 03:26:14;;;;;;;7.10;1.65;;;;;;;;;;5096746;28;20568;-75
2021/08/10 03:28:41;;;;;;;5.35;1.95;;;;;;;;;;5076458;28;20029;-75
2021/08/10 03:31:11;;;;;;;8.85;1.80;;;;;;;;;;5077686;28;20031;-74
2021/08/10 03:33:37;;;;;;;4.78;1.88;;;;;;;;;;5076162;28;20051;-75
2021/08/10 03:36:04;;;;;;;7.10;1.92;;;;;;;;;;5096568;28;20407;-75
2021/08/10 03:38:32;;;;;;;3.90;2.15;;;;;;;;;;5098226;28;20035;-75
2021/08/10 03:40:58;;;;;;;5.85;2.05;;;;;;;;;;5095630;28;20114;-74
2021/08/10 03:43:27;;;;;;;2.75;1.55;;;;;;;;;;5097791;28;20031;-75
2021/08/10 03:45:53;;;;;;;5.78;2.13;;;;;;;;;;5098320;28;20036;-76
2021/08/10 03:48:21;;;;;;;7.85;2.22;;;;;;;;;;5095717;28;20031;-75
2021/08/10 03:50:48;;;;;;;3.65;1.80;;;;;;;;;;5098116;28;20035;-75
2021/08/10 03:53:14;;;;;;;4.15;1.75;;;;;;;;;;5081270;28;20043;-74
2021/08/10 03:55:39;;;;;;;3.28;1.98;;;;;;;;;;5109021;28;20036;-74
2021/08/10 03:58:06;;;;;;;4.13;1.85;;;;;;;;;;5096349;28;20035;-75
2021/08/10 04:00:39;;;;;;;9.35;1.90;;;;;;;;;;5094588;28;20035;-75
2021/08/10 04:03:08;;;;;;;3.80;2.08;;;;;;;;;;5092738;28;20115;-75
2021/08/10 04:05:39;;;;;;;7.07;2.13;;;;;;;;;;5077421;28;20131;-75
2021/08/10 04:08:09;;;;;;;4.00;1.85;;;;;;;;;;5094056;28;20039;-75
2021/08/10 04:10:38;;;;;;;4.57;1.90;;;;;;;;;;5072254;28;20037;-75
2021/08/10 04:13:07;;;;;;;5.07;2.75;;;;;;;;;;5075665;28;20435;-75
2021/08/10 04:15:33;;;;;;;4.32;2.10;;;;;;;;;;5073944;28;20043;-74
2021/08/10 04:18:00;;;;;;;4.40;1.70;;;;;;;;;;5072620;28;20032;-75
2021/08/10 04:20:25;;;;;;;3.35;1.73;;;;;;;;;;5075420;28;20025;-75
2021/08/10 04:22:51;;;;;;;3.83;1.80;;;;;;;;;;5090140;28;20036;-75
2021/08/10 04:25:17;;;;;;;2.03;1.80;;;;;;;;;;5072153;28;20033;-74
2021/08/10 04:27:43;;;;;;;5.38;2.00;;;;;;;;;;5057242;28;20085;-74
2021/08/10 04:30:12;;;;;;;13.40;1.77;;;;;;;;;;5089609;28;20053;-75
2021/08/10 04:32:38;;;;;;;5.18;1.80;;;;;;;;;;5088032;28;20132;-75
2021/08/10 04:35:04;;;;;;;5.28;2.03;;;;;;;;;;5077780;28;20385;-75
2021/08/10 04:37:30;;;;;;;7.82;2.08;;;;;;;;;;5075458;28;20034;-74
2021/08/10 04:39:57;;;;;;;9.27;3.75;;;;;;;;;;5092417;28;20077;-74
2021/08/10 04:42:40;;;;;;;4.70;1.60;;;;;;;;;;5092902;28;20039;-75
2021/08/10 04:45:06;;;;;;;7.40;2.30;;;;;;;;;;5094984;28;20028;-74
2021/08/10 04:47:32;;;;;;;3.42;1.85;;;;;;;;;;5092281;28;20436;-74
2021/08/10 04:49:59;;;;;;;9.85;2.08;;;;;;;;;;5093785;28;20077;-75
2021/08/10 04:52:24;;;;;;;5.38;1.98;;;;;;;;;;5091052;28;20032;-75
2021/08/10 04:54:50;;;;;;;4.32;2.00;;;;;;;;;;5062790;28;20556;-76
2021/08/10 04:57:16;;;;;;;6.93;1.83;;;;;;;;;;5082514;28;20035;-77
2021/08/10 04:59:41;;;;;;;3.17;2.00;;;;;;;;;;5091034;28;20024;-76
2021/08/10 05:02:07;;;;;;;2.45;1.73;;;;;;;;;;5093568;28;20035;-76
2021/08/10 05:04:34;;;;;;;5.55;1.90;;;;;;;;;;5093761;28;20381;-76
2021/08/10 05:07:03;;;;;;;3.88;1.60;;;;;;;;;;5091316;28;20070;-77
2021/08/10 05:09:32;;;;;;;6.47;2.00;;;;;;;;;;5076245;28;20032;-76
2021/08/10 05:11:59;;;;;;;3.15;1.80;;;;;;;;;;5093019;28;20028;-76
2021/08/10 05:14:25;;;;;;;6.15;2.00;;;;;;;;;;5091040;28;20374;-76
2021/08/10 05:16:54;;;;;;;3.45;1.80;;;;;;;;;;5091641;28;20119;-76
2021/08/10 05:19:20;;;;;;;4.97;1.77;;;;;;;;;;5093095;28;20131;-74
2021/08/10 05:21:45;;;;;;;4.22;2.28;;;;;;;;;;5071065;28;20025;-75
2021/08/10 05:24:11;;;;;;;3.00;2.00;;;;;;;;;;5072181;28;20481;-75
2021/08/10 05:26:37;;;;;;;3.90;2.20;;;;;;;;;;5073608;28;20040;-74
2021/08/10 05:29:03;;;;;;;5.22;2.20;;;;;;;;;;5079809;28;20040;-78
2021/08/10 05:31:28;;;;;;;3.10;1.90;;;;;;;;;;5095392;28;20112;-80
2021/08/10 05:33:54;;;;;;;7.15;2.28;;;;;;;;;;5092739;28;20178;-76
2021/08/10 05:36:20;;;;;;;2.42;2.00;;;;;;;;;;5091279;28;20465;-77
2021/08/10 05:38:49;;;;;;;8.55;2.30;;;;;;;;;;5076317;28;20032;-76
2021/08/10 05:41:16;;;;;;;3.97;1.67;;;;;;;;;;5091720;28;20024;-76
2021/08/10 05:43:43;;;;;;;4.50;2.17;;;;;;;;;;5091027;28;20028;-76
2021/08/10 05:46:09;;;;;;;5.32;2.10;;;;;;;;;;5074406;28;20042;-76
2021/08/10 05:48:34;;;;;;;4.65;1.95;;;;;;;;;;5091470;28;20684;-76
2021/08/10 05:51:01;;;;;;;3.60;2.13;;;;;;;;;;5074101;28;20028;-76
2021/08/10 05:53:32;;;;;;;5.93;2.03;;;;;;;;;;5091765;28;20028;-76
2021/08/10 05:55:59;;;;;;;3.85;2.20;;;;;;;;;;5101930;28;20028;-76
2021/08/10 05:58:25;;;;;;;5.20;2.13;;;;;;;;;;5091203;28;20066;-77
2021/08/10 06:00:54;;;;;;;5.82;2.33;;;;;;;;;;5076280;28;20043;-76
2021/08/10 06:03:20;;;;;;;4.55;2.67;;;;;;;;;;5090742;28;20127;-77
2021/08/10 06:05:46;;;;;;;2.50;2.10;;;;;;;;;;5076204;28;20071;-77
2021/08/10 06:08:12;;;;;;;6.10;2.47;;;;;;;;;;5072272;28;20029;-77
2021/08/10 06:10:45;;;;;;;4.82;2.13;;;;;;;;;;5070276;28;20024;-77
2021/08/10 06:13:11;;;;;;;7.38;2.53;;;;;;;;;;5074094;28;20047;-77
2021/08/10 06:15:38;;;;;;;3.80;2.33;;;;;;;;;;5093269;28;20032;-78
2021/08/10 06:18:05;;;;;;;7.57;2.60;;;;;;;;;;5092131;28;20031;-78
2021/08/10 06:20:30;;;;;;;4.40;2.45;;;;;;;;;;5059176;28;20375;-78
2021/08/10 06:22:56;;;;;;;4.15;2.38;;;;;;;;;;5075688;28;20368;-78
2021/08/10 06:25:22;;;;;;;8.13;2.55;;;;;;;;;;5058091;28;20028;-77
2021/08/10 06:27:47;;;;;;;15.90;3.15;;;;;;;;;;5092440;28;20050;-77
2021/08/10 06:30:14;;;;;;;4.95;3.03;;;;;;;;;;5076357;28;20031;-77
2021/08/10 06:32:40;;;;;;;9.05;3.38;;;;;;;;;;5090325;28;20040;-77
2021/08/10 06:35:08;;;;;;;6.18;2.67;;;;;;;;;;5075820;28;20036;-77
2021/08/10 06:37:34;;;;;;;4.15;2.60;;;;;;;;;;5092134;28;20088;-77
2021/08/10 06:40:00;;;;;;;4.38;2.30;;;;;;;;;;5070146;28;20024;-77
2021/08/10 06:42:25;;;;;;;9.20;2.90;;;;;;;;;;5072081;28;20029;-77
2021/08/10 06:44:59;;;;;;;6.38;2.28;;;;;;;;;;5073120;28;20033;-77
2021/08/10 06:47:26;;;;;;;8.15;2.70;;;;;;;;;;5072050;28;20028;-78
2021/08/10 06:49:52;;;;;;;5.75;2.67;;;;;;;;;;5072183;28;20039;-78
2021/08/10 06:52:18;;;;;;;6.28;2.95;;;;;;;;;;5071649;28;20032;-77
2021/08/10 06:54:44;;;;;;;10.60;3.05;;;;;;;;;;5079759;28;20032;-78
2021/08/10 06:57:10;;;;;;;9.10;3.78;;;;;;;;;;5093595;28;20062;-78
2021/08/10 06:59:38;;;;;;;7.05;3.22;;;;;;;;;;5092564;28;20456;-76
2021/08/10 07:02:06;;;;;;;7.90;4.00;;;;;;;;;;5090095;28;20024;-76
2021/08/10 07:04:32;;;;;;;8.70;3.97;;;;;;;;;;5075506;28;20034;-77
2021/08/10 07:07:03;;;;;;;5.20;3.38;;;;;;;;;;5074467;28;20489;-76
2021/08/10 07:09:32;;;;;;;5.60;3.08;;;;;;;;;;5070660;28;20056;-76
2021/08/10 07:11:58;;;;;;;5.43;3.25;;;;;;;;;;5071269;28;20039;-77
2021/08/10 07:14:23;;;;;;;5.35;2.83;;;;;;;;;;5071151;28;20028;-76
2021/08/10 07:16:49;;;;;;;4.22;2.50;;;;;;;;;;5090888;28;20397;-76
2021/08/10 07:19:15;;;;;;;3.88;2.75;;;;;;;;;;5091806;28;20473;-76
2021/08/10 07:21:44;;;;;;;4.93;2.95;;;;;;;;;;5090345;28;20054;-75
2021/08/10 07:24:16;;;;;;;7.47;3.83;;;;;;;;;;5089642;28;20080;-75
2021/08/10 07:26:43;;;;;;;7.45;3.78;;;;;;;;;;5074638;28;20043;-76
2021/08/10 07:29:08;;;;;;;12.38;4.07;;;;;;;;;;5074195;28;20032;-77
2021/08/10 07:31:34;;;;;;;5.88;4.13;;;;;;;;;;5090983;28;20520;-76
2021/08/10 07:34:09;;;;;;;13.13;3.22;;;;;;;;;;5092637;28;20032;-76
2021/08/10 07:36:38;;;;;;;5.57;3.05;;;;;;;;;;5076193;28;20062;-76
2021/08/10 07:39:04;;;;;;;7.85;2.53;;;;;;;;;;5094984;28;20031;-76
2021/08/10 07:41:30;;;;;;;5.68;2.40;;;;;;;;;;5095573;28;20119;-75
2021/08/10 07:43:56;;;;;;;5.90;1.80;;;;;;;;;;5092368;28;20111;-76
2021/08/10 07:46:21;;;;;;;3.75;2.25;;;;;;;;;;5095614;28;20059;-76
2021/08/10 07:48:50;;;;;;;8.20;2.97;;;;;;;;;;5095162;28;20032;-75
2021/08/10 07:51:18;;;;;;;4.93;2.55;;;;;;;;;;5076636;28;20023;-75
2021/08/10 07:53:44;;;;;;;10.63;3.25;;;;;;;;;;5094316;28;20039;-75
2021/08/10 07:56:12;;;;;;;7.47;2.50;;;;;;;;;;5094512;28;20128;-75
2021/08/10 07:58:37;;;;;;;6.15;2.30;;;;;;;;;;5072513;28;20036;-76
2021/08/10 08:01:04;;;;;;;3.80;2.35;;;;;;;;;;5074136;28;20470;-76
2021/08/10 08:03:29;;;;;;;4.45;2.50;;;;;;;;;;5074090;28;20067;-76
2021/08/10 08:05:55;;;;;;;4.70;2.53;;;;;;;;;;5072490;28;20450;-76
2021/08/10 08:08:22;;;;;;;6.05;2.40;;;;;;;;;;5074621;28;20036;-76
2021/08/10 08:10:48;;;;;;;9.52;2.33;;;;;;;;;;5057146;28;20032;-76
2021/08/10 08:13:14;;;;;;;7.53;2.13;;;;;;;;;;5072400;28;20028;-76
2021/08/10 08:15:39;;;;;;;3.35;1.85;;;;;;;;;;5074426;28;20091;-76
2021/08/10 08:18:09;;;;;;;3.58;1.88;;;;;;;;;;5074898;28;20033;-76
2021/08/10 08:20:36;;;;;;;4.32;2.25;;;;;;;;;;5083807;28;20075;-76
2021/08/10 08:23:02;;;;;;;3.53;1.83;;;;;;;;;;5094513;28;20051;-76
2021/08/10 08:25:27;;;;;;;5.85;2.33;;;;;;;;;;5092720;28;20032;-76
2021/08/10 08:27:53;;;;;;;8.25;2.00;;;;;;;;;;5091434;28;20466;-76
2021/08/10 08:30:19;;;;;;;7.80;1.55;;;;;;;;;;5094027;28;20036;-76
2021/08/10 08:32:45;;;;;;;4.35;2.03;;;;;;;;;;5076083;28;20067;-75
2021/08/10 08:35:12;;;;;;;3.40;1.98;;;;;;;;;;5093115;28;20052;-75
2021/08/10 08:37:39;;;;;;;4.60;1.80;;;;;;;;;;5077748;28;20032;-76
2021/08/10 08:40:06;;;;;;;6.28;1.80;;;;;;;;;;5092777;28;20032;-76
2021/08/10 08:42:33;;;;;;;9.38;1.70;;;;;;;;;;5092347;28;20028;-76
2021/08/10 08:45:00;;;;;;;6.50;1.80;;;;;;;;;;5076557;28;20070;-76
2021/08/10 08:47:26;;;;;;;6.10;2.22;;;;;;;;;;5092226;28;20051;-76
2021/08/10 08:49:57;;;;;;;4.70;2.08;;;;;;;;;;5093129;28;20028;-76
2021/08/10 08:52:24;;;;;;;4.47;1.85;;;;;;;;;;5077204;28;20035;-76
2021/08/10 08:54:50;;;;;;;5.28;2.45;;;;;;;;;;5091764;28;20438;-75
2021/08/10 08:57:16;;;;;;;5.57;1.90;;;;;;;;;;5075968;28;20473;-76
2021/08/10 08:59:43;;;;;;;2.97;1.67;;;;;;;;;;5094088;28;20032;-76
2021/08/10 09:02:17;;;;;;;4.05;2.00;;;;;;;;;;5091055;28;20020;-76
2021/08/10 09:04:47;;;;;;;3.80;1.77;;;;;;;;;;5093835;28;20377;-76
2021/08/10 09:07:14;;;;;;;3.75;1.70;;;;;;;;;;5077014;28;20496;-76
2021/08/10 09:09:40;;;;;;;3.63;2.03;;;;;;;;;;5091262;28;20028;-76
2021/08/10 09:12:15;;;;;;;7.50;2.10;;;;;;;;;;5093116;28;20107;-76
2021/08/10 09:14:49;;;;;;;3.15;1.88;;;;;;;;;;5092966;28;20698;-75
2021/08/10 09:17:22;;;;;;;6.05;2.03;;;;;;;;;;5075844;28;20051;-76
2021/08/10 09:19:53;;;;;;;7.07;2.03;;;;;;;;;;5093513;28;20524;-76
2021/08/10 09:22:25;;;;;;;6.47;2.10;;;;;;;;;;5092561;28;20106;-75
2021/08/10 09:24:56;;;;;;;4.47;2.20;;;;;;;;;;5074682;28;20039;-76
2021/08/10 09:27:34;;;;;;;3.95;2.30;;;;;;;;;;5093442;28;20028;-76
2021/08/10 09:30:01;;;;;;;4.82;2.10;;;;;;;;;;5074843;28;20062;-76
2021/08/10 09:32:27;;;;;;;3.63;1.85;;;;;;;;;;5071526;28;20048;-76
2021/08/10 09:35:05;;;;;;;3.80;2.15;;;;;;;;;;5074365;28;20066;-75
2021/08/10 09:37:31;;;;;;;6.88;1.90;;;;;;;;;;5071266;28;20487;-75
2021/08/10 09:39:56;;;;;;;2.80;1.85;;;;;;;;;;5055617;28;20134;-75
2021/08/10 09:42:23;;;;;;;6.50;2.13;;;;;;;;;;5072765;28;20029;-75
2021/08/10 09:45:09;;;;;;;5.63;1.83;;;;;;;;;;5087445;28;20033;-75
2021/08/10 09:47:41;;;;;;;6.43;1.80;;;;;;;;;;5072674;28;20040;-75
2021/08/10 09:50:15;;;;;;;3.40;1.75;;;;;;;;;;5055415;28;20165;-75
2021/08/10 09:52:41;;;;;;;4.03;2.05;;;;;;;;;;5090558;28;20032;-75
2021/08/10 09:55:12;;;;;;;3.17;1.85;;;;;;;;;;5091807;28;20131;-76
2021/08/10 09:57:40;;;;;;;2.60;1.80;;;;;;;;;;5090828;28;20401;-76
2021/08/10 10:00:06;;;;;;;3.72;2.00;;;;;;;;;;5091578;28;20497;-75
2021/08/10 10:02:38;;;;;;;4.13;2.03;;;;;;;;;;5093219;28;20042;-76
2021/08/10 10:05:04;;;;;;;4.28;1.92;;;;;;;;;;5076473;28;20031;-77
2021/08/10 10:07:29;;;;;;;3.85;1.95;;;;;;;;;;5091050;28;20020;-75
2021/08/10 10:10:04;;;;;;;3.60;1.90;;;;;;;;;;5095463;28;20433;-77
2021/08/10 10:12:35;;;;;;;3.45;2.05;;;;;;;;;;5094953;28;20031;-76
2021/08/10 10:15:01;;;;;;;3.35;1.90;;;;;;;;;;5064729;28;20043;-80
2021/08/10 10:17:31;;;;;;;4.60;2.15;;;;;;;;;;5060763;28;20119;-80
2021/08/10 10:19:57;;;;;;;3.28;2.00;;;;;;;;;;5075475;28;20528;-78
2021/08/10 10:22:27;;;;;;;2.72;1.95;;;;;;;;;;5070235;28;20123;-80
2021/08/10 10:24:56;;;;;;;6.78;2.17;;;;;;;;;;5079197;28;20489;-81
2021/08/10 10:27:23;;;;;;;3.65;2.10;;;;;;;;;;5078053;28;20096;-82
2021/08/10 10:29:50;;;;;;;2.60;2.00;;;;;;;;;;5095190;28;20036;-81
2021/08/10 10:32:21;;;;;;;4.97;2.33;;;;;;;;;;5096635;28;20047;-79
2021/08/10 10:34:47;;;;;;;3.63;2.30;;;;;;;;;;5075638;28;20473;-77
2021/08/10 10:37:19;;;;;;;5.07;1.92;;;;;;;;;;5055973;28;20136;-79
2021/08/10 10:39:45;;;;;;;3.80;1.88;;;;;;;;;;5074799;28;20033;-77
2021/08/10 10:42:15;;;;;;;3.85;2.00;;;;;;;;;;5072297;28;20027;-76
2021/08/10 10:44:51;;;;;;;2.08;1.40;;;;;;;;;;5091398;28;20397;-76
2021/08/10 10:47:19;;;;;;;4.78;2.45;;;;;;;;;;5092106;28;20040;-77
2021/08/10 10:49:45;;;;;;;12.02;9.57;;;;;;;;;;5090784;28;20465;-76
2021/08/10 10:52:10;;;;;;;10.10;2.80;;;;;;;;;;5091789;28;20123;-76
2021/08/10 10:54:45;;;;;;;6.00;2.92;;;;;;;;;;5103163;28;20042;-76
2021/08/10 10:57:29;;;;;;;4.32;2.17;;;;;;;;;;5101846;28;20035;-76
2021/08/10 10:59:55;;;;;;;3.70;1.88;;;;;;;;;;5091869;28;20106;-77
2021/08/10 11:02:24;;;;;;;4.40;2.15;;;;;;;;;;5073855;28;20032;-76
2021/08/10 11:05:08;;;;;;;3.88;2.13;;;;;;;;;;5077179;28;20414;-76
2021/08/10 11:07:38;;;;;;;6.88;2.15;;;;;;;;;;5073441;28;20508;-76
2021/08/10 11:10:10;;;;;;;7.72;2.10;;;;;;;;;;5076995;28;20037;-78
2021/08/10 11:12:44;;;;;;;3.67;2.33;;;;;;;;;;5097968;28;20032;-78
2021/08/10 11:15:43;;;;;;;3.72;1.90;;;;;;;;;;5082215;28;20036;-78
2021/08/10 11:18:08;;;;;;;4.00;2.17;;;;;;;;;;5093573;28;20028;-78
2021/08/10 11:20:42;;;;;;;4.15;2.25;;;;;;;;;;5061272;28;20089;-78
2021/08/10 11:23:24;;;;;;;3.08;2.33;;;;;;;;;;5079889;28;20044;-78
2021/08/10 11:26:15;;;;;;;6.70;2.55;;;;;;;;;;5078075;28;20035;-76
2021/08/10 11:28:46;;;;;;;4.55;2.45;;;;;;;;;;5081161;28;20105;-77
2021/08/10 11:31:11;;;;;;;3.67;2.35;;;;;;;;;;5096686;28;20039;-77
2021/08/10 11:33:40;;;;;;;4.45;2.88;;;;;;;;;;5095112;28;20040;-77
2021/08/10 11:36:11;;;;;;;5.35;2.50;;;;;;;;;;5080083;28;20038;-75
2021/08/10 11:38:51;;;;;;;3.65;2.42;;;;;;;;;;5097922;28;20651;-78
2021/08/10 11:41:21;;;;;;;2.63;1.88;;;;;;;;;;5085458;28;20397;-78
2021/08/10 11:43:49;;;;;;;3.67;2.35;;;;;;;;;;5103717;28;20111;-78
2021/08/10 11:46:22;;;;;;;4.65;2.97;;;;;;;;;;5094818;28;20040;-78
2021/08/10 11:48:54;;;;;;;6.43;2.47;;;;;;;;;;5062678;28;20037;-78
2021/08/10 11:51:22;;;;;;;3.95;2.95;;;;;;;;;;5080611;28;20036;-79
2021/08/10 11:53:49;;;;;;;7.40;2.67;;;;;;;;;;5089098;28;20040;-78
2021/08/10 11:56:33;;;;;;;3.50;2.53;;;;;;;;;;5102304;28;20085;-78
2021/08/10 11:59:01;;;;;;;2.83;2.40;;;;;;;;;;5099992;28;20565;-79
2021/08/10 12:01:28;;;;;;;6.53;2.50;;;;;;;;;;5099169;28;20118;-79
2021/08/10 12:03:53;;;;;;;5.93;3.15;;;;;;;;;;5101340;28;20118;-80
2021/08/10 12:06:27;;;;;;;3.28;2.35;;;;;;;;;;5101682;28;20059;-79
2021/08/10 12:08:53;;;;;;;4.68;2.65;;;;;;;;;;5099212;28;20038;-79
2021/08/10 12:11:22;;;;;;;10.77;2.90;;;;;;;;;;5087196;28;20108;-79
2021/08/10 12:13:48;;;;;;;3.97;2.40;;;;;;;;;;5075741;28;20115;-79
2021/08/10 12:16:13;;;;;;;5.30;3.08;;;;;;;;;;5093035;28;20051;-79
2021/08/10 12:18:50;;;;;;;4.07;2.58;;;;;;;;;;5082234;28;20044;-79
2021/08/10 12:21:16;;;;;;;3.78;2.67;;;;;;;;;;5078517;28;20040;-78
2021/08/10 12:23:44;;;;;;;3.78;2.38;;;;;;;;;;5076444;28;20024;-79
2021/08/10 12:26:14;;;;;;;4.97;2.42;;;;;;;;;;5081948;28;20035;-79
2021/08/10 12:29:04;;;;;;;7.43;3.10;;;;;;;;;;5081921;28;20040;-78
2021/08/10 12:31:30;;;;;;;4.50;3.25;;;;;;;;;;5076843;28;20032;-78
2021/08/10 12:33:58;;;;;;;4.88;3.15;;;;;;;;;;5076959;28;20041;-79
2021/08/10 12:36:26;;;;;;;5.22;2.70;;;;;;;;;;5079175;28;20039;-79
2021/08/10 12:38:52;;;;;;;4.78;2.45;;;;;;;;;;5098210;28;20070;-78
2021/08/10 12:41:23;;;;;;;7.50;2.85;;;;;;;;;;5098432;28;20028;-79
2021/08/10 12:43:52;;;;;;;8.48;3.40;;;;;;;;;;5096279;28;20085;-79
2021/08/10 12:46:34;;;;;;;5.78;3.78;;;;;;;;;;5094608;28;20068;-79
2021/08/10 12:49:05;;;;;;;6.95;3.25;;;;;;;;;;5099340;28;20055;-84
2021/08/10 12:51:51;;;;;;;7.32;3.17;;;;;;;;;;5075546;28;20108;-78
2021/08/10 12:54:16;;;;;;;4.82;2.63;;;;;;;;;;5059326;28;20067;-81
2021/08/10 12:56:42;;;;;;;5.32;3.17;;;;;;;;;;5055160;28;20048;-80
2021/08/10 12:59:08;;;;;;;4.63;2.92;;;;;;;;;;5088058;28;20050;-79
2021/08/10 13:01:40;;;;;;;3.92;2.97;;;;;;;;;;5095535;28;20039;-78
2021/08/10 13:04:11;;;;;;;4.85;3.40;;;;;;;;;;5093706;28;20077;-79
2021/08/10 13:06:37;;;;;;;5.53;3.22;;;;;;;;;;5098621;28;20036;-82
2021/08/10 13:09:06;;;;;;;4.55;3.08;;;;;;;;;;5097548;28;20031;-79
2021/08/10 13:11:32;;;;;;;3.63;2.90;;;;;;;;;;5099006;28;20041;-81
2021/08/10 13:14:24;;;;;;;5.07;3.22;;;;;;;;;;5101813;28;20096;-78
2021/08/10 13:16:49;;;;;;;5.57;3.63;;;;;;;;;;5083008;28;20383;-85
2021/08/10 13:19:17;;;;;;;6.15;3.42;;;;;;;;;;5087580;28;20054;-81
2021/08/10 13:21:51;;;;;;;4.25;3.00;;;;;;;;;;5074635;28;20055;-80
2021/08/10 13:24:21;;;;;;;4.93;3.22;;;;;;;;;;5096037;28;20032;-84
2021/08/10 13:26:53;;;;;;;4.47;3.00;;;;;;;;;;5067124;28;20044;-83
2021/08/10 13:29:19;;;;;;;6.18;2.80;;;;;;;;;;5080462;28;20095;-83
2021/08/10 13:31:53;;;;;;;4.85;3.17;;;;;;;;;;5086427;28;20499;-83
2021/08/10 13:34:20;;;;;;;4.40;3.10;;;;;;;;;;5093553;28;20024;-82
2021/08/10 13:36:47;;;;;;;4.05;3.05;;;;;;;;;;5080965;28;20396;-79
2021/08/10 13:39:15;;;;;;;4.53;3.22;;;;;;;;;;5096446;28;20459;-84
2021/08/10 13:41:43;;;;;;;4.40;3.20;;;;;;;;;;5096340;28;20036;-83
2021/08/10 13:44:09;;;;;;;5.22;3.20;;;;;;;;;;5097918;28;20039;-82
2021/08/10 13:46:36;;;;;;;5.88;3.30;;;;;;;;;;5079211;28;20040;-84
2021/08/10 13:49:04;;;;;;;6.30;3.42;;;;;;;;;;5096793;28;20116;-78
2021/08/10 13:51:31;;;;;;;5.53;3.28;;;;;;;;;;5097260;28;20051;-78
2021/08/10 13:53:56;;;;;;;4.22;3.08;;;;;;;;;;5076863;28;20032;-79
2021/08/10 13:56:23;;;;;;;4.18;3.00;;;;;;;;;;5103100;28;20064;-77
2021/08/10 13:58:48;;;;;;;8.25;3.85;;;;;;;;;;5116342;28;20054;-80
2021/08/10 14:01:20;;;;;;;5.05;3.25;;;;;;;;;;5116215;28;20524;-82
2021/08/10 14:03:45;;;;;;;4.82;3.28;;;;;;;;;;5096202;28;20043;-79
2021/08/10 14:06:10;;;;;;;5.22;3.47;;;;;;;;;;5097890;28;20396;-79
2021/08/10 14:08:37;;;;;;;5.15;3.35;;;;;;;;;;5095850;28;20043;-82
2021/08/10 14:11:04;;;;;;;5.10;3.50;;;;;;;;;;5080292;28;20070;-82
2021/08/10 14:13:29;;;;;;;4.85;3.47;;;;;;;;;;5096866;28;20122;-81
2021/08/10 14:15:55;;;;;;;4.88;3.47;;;;;;;;;;5083323;28;20055;-86
2021/08/10 14:18:23;;;;;;;5.32;3.35;;;;;;;;;;5085854;28;20430;-86
2021/08/10 14:20:49;;;;;;;6.15;3.50;;;;;;;;;;5087990;28;20118;-85
2021/08/10 14:23:15;;;;;;;7.97;3.58;;;;;;;;;;5103177;28;20020;-85
2021/08/10 14:25:41;;;;;;;4.30;2.80;;;;;;;;;;5113646;28;20039;-85
2021/08/10 14:28:08;;;;;;;5.70;3.42;;;;;;;;;;5109031;28;20039;-84
2021/08/10 14:30:33;;;;;;;9.13;3.53;;;;;;;;;;5101885;28;20039;-83
2021/08/10 14:33:00;;;;;;;12.98;3.53;;;;;;;;;;5085923;28;20048;-83
2021/08/10 14:35:26;;;;;;;4.38;3.13;;;;;;;;;;5087068;28;20436;-84
2021/08/10 14:37:54;;;;;;;6.10;3.55;;;;;;;;;;5085210;28;20067;-84
2021/08/10 14:40:20;;;;;;;9.07;3.78;;;;;;;;;;5101767;28;20102;-81
2021/08/10 14:42:47;;;;;;;4.22;3.20;;;;;;;;;;5103214;28;20054;-85
2021/08/10 14:45:13;;;;;;;7.90;2.97;;;;;;;;;;5079181;28;20043;-85
2021/08/10 14:47:38;;;;;;;4.25;2.72;;;;;;;;;;5082242;28;20486;-82
2021/08/10 14:50:06;;;;;;;4.65;2.88;;;;;;;;;;5085964;28;20021;-82
2021/08/10 14:52:32;;;;;;;6.00;3.30;;;;;;;;;;5090532;28;20386;-82